モントリオール/トルドー の空港の天気 - METARとTAF

モントリオール・ピエール・エリオット・トルドー国際空港 ( CYUL / YUL ) - カナダ ケベック州モントリオール
飛行場実況気象(Metar)
観測時間11/20 04:00 EST (11/20 09:00 UTC)
風向・風速西 6m/s 瞬間風速11m/s
視程10km以上
天気現象
少しの雲 雲底高度 610m
少しの雲 雲底高度 1520m
全天の8割程度の雲 雲底高度 2290m
気温-5℃
湿度68%
気圧1007.2hPa
METARCYUL 200900Z 27012G21KT 15SM FEW020 FEW050 BKN075 M05/M10 A2973 RMK SC1SC1AC6 SC TR SLP072
過去の天気等 Google飛行場航空写真 Wunderground天気予報

過去48時間のMETAR

飛行場予報(TAF)
発表時間: 11/20 03:38 EST (11/20 08:38 UTC)
予報対象時間: 20日4時 EST ~ 21日1時 EST
風向・風速西 8m/s 瞬間風速 13m/s
視程10km以上
少しの雲 雲底高度 610m
全天の8割程度の雲 雲底高度 3,050m
20日4時 EST ~ 20日5時 EST に一時的に
20日5時 EST から
風向・風速西 6m/s 瞬間風速 11m/s
視程10km以上
全天の8割程度の雲 雲底高度 910m
20日5時 EST ~ 20日7時 EST に一時的に
視程10km以上
天気現象弱いしゅう雪
全天を覆う雲 雲底高度 610m
20日8時 EST ~ 20日10時 EST に徐々に
風向・風速西 8m/s 瞬間風速 13m/s
20日11時 EST から
風向・風速西 8m/s 瞬間風速 13m/s
視程10km以上
全天の8割程度の雲 雲底高度 910m
20日11時 EST ~ 20日16時 EST に一時的に
少しの雲 雲底高度 910m
20日16時 EST から
風向・風速西 6m/s 瞬間風速 11m/s
視程10km以上
少しの雲 雲底高度 910m
20日18時 EST ~ 20日20時 EST に徐々に
風向・風速西 4m/s
20日22時 EST から
風向・風速東 3m/s
視程10km以上
全天の8割程度の雲 雲底高度 910m
TAF CYUL 200838Z 2009/2106 26015G25KT P6SM FEW020 BKN100
TEMPO 2009/2010 P6 -SHSN BKN020 OVC100
FM201000 27012G22KT P6SM BKN030
TEMPO 2010/2012 P6SM -SHSN OVC020
BECMG 2013/2015 26015G25KT
FM201600 26015G25KT P6SM BKN030
TEMPO 2016/2021 FEW030
FM202100 26012G22KT P6SM FEW030
BECMG 2023/2101 26008KT
FM210300 10005KT P6SM BKN030 RMK NXT FCST BY 201200Z